Time;durP1;ratioP1;P1;durP2;ratioP2;P2;SDS_P1;SDS_P2;PMS_P1;PMS_P2;Temp;Humidity;BMP_temperature;BMP_pressure;BME280_temperature;BME280_humidity;BME280_pressure;Samples;Min_cycle;Max_cycle;Signal;HPM_P1;HPM_P2
2023/11/04 00:03:26;;;;;;;3.40;1.00;;;;;;;;;;103466;1295;547954;-78
2023/11/04 00:07:07;;;;;;;5.20;1.30;;;;;;;;;;103551;1291;548178;-88
2023/11/04 00:10:42;;;;;;;4.50;1.30;;;;;;;;;;103882;1288;545230;-78
2023/11/04 00:14:20;;;;;;;4.80;1.60;;;;;;;;;;103931;1290;548558;-82
2023/11/04 00:17:48;;;;;;;13.20;6.60;;;;;;;;;;103754;1292;545931;-76
2023/11/04 00:21:32;;;;;;;21.30;11.00;;;;;;;;;;103744;1292;547993;-76
2023/11/04 00:25:28;;;;;;;18.50;9.60;;;;;;;;;;103658;1294;550564;-77
2023/11/04 00:28:52;;;;;;;9.00;3.30;;;;;;;;;;103706;1290;549371;-79
2023/11/04 00:32:24;;;;;;;13.30;5.90;;;;;;;;;;103694;1291;548277;-87
2023/11/04 00:36:01;;;;;;;11.50;4.00;;;;;;;;;;103633;1305;548975;-84
2023/11/04 00:39:56;;;;;;;12.60;5.40;;;;;;;;;;103639;1295;549001;-79
2023/11/04 00:43:13;;;;;;;7.90;3.00;;;;;;;;;;103491;1295;549369;-80
2023/11/04 00:46:45;;;;;;;8.10;2.80;;;;;;;;;;103810;1292;545347;-78
2023/11/04 00:50:54;;;;;;;;;;;;;;;;;;;;;
2023/11/04 00:54:18;;;;;;;3.80;1.30;;;;;;;;;;103903;1294;544959;-86
2023/11/04 00:58:13;;;;;;;3.40;1.20;;;;;;;;;;103718;1295;546477;-81
2023/11/04 01:01:31;;;;;;;3.90;1.10;;;;;;;;;;103683;1292;545579;-80
2023/11/04 01:05:11;;;;;;;5.50;1.30;;;;;;;;;;103657;1297;549119;-78
2023/11/04 01:08:47;;;;;;;3.10;0.90;;;;;;;;;;103936;1291;545346;-78
2023/11/04 01:12:54;;;;;;;;;;;;;;;;;;;;;
2023/11/04 01:16:02;;;;;;;2.50;0.90;;;;;;;;;;103611;1291;547910;-78
2023/11/04 01:19:42;;;;;;;3.10;1.20;;;;;;;;;;103722;1303;547965;-84
2023/11/04 01:23:27;;;;;;;4.80;1.30;;;;;;;;;;103862;1289;547911;-82
2023/11/04 01:26:58;;;;;;;5.60;1.60;;;;;;;;;;103705;1289;545550;-78
2023/11/04 01:30:45;;;;;;;6.10;1.60;;;;;;;;;;103611;1294;547851;-82
2023/11/04 01:34:11;;;;;;;6.60;1.60;;;;;;;;;;103635;1292;548451;-78
2023/11/04 01:38:13;;;;;;;6.90;2.10;;;;;;;;;;103364;1301;545418;-84
2023/11/04 01:41:22;;;;;;;5.70;1.80;;;;;;;;;;103788;1295;545892;-79
2023/11/04 01:45:07;;;;;;;5.50;1.30;;;;;;;;;;103671;1291;547745;-84
2023/11/04 01:48:35;;;;;;;3.80;1.30;;;;;;;;;;103744;1289;545667;-77
2023/11/04 01:52:21;;;;;;;4.60;1.40;;;;;;;;;;103723;1289;549392;-77
2023/11/04 01:56:10;;;;;;;3.50;1.60;;;;;;;;;;103780;1292;544850;-77
2023/11/04 01:59:43;;;;;;;4.30;1.40;;;;;;;;;;103959;1295;545531;-81
2023/11/04 02:03:17;;;;;;;3.10;1.10;;;;;;;;;;103632;1292;548454;-83
2023/11/04 02:06:51;;;;;;;4.90;1.30;;;;;;;;;;103633;1291;549636;-82
2023/11/04 02:10:42;;;;;;;4.80;1.40;;;;;;;;;;104263;1286;545925;-78
2023/11/04 02:14:08;;;;;;;3.90;1.40;;;;;;;;;;103755;1291;548138;-84
2023/11/04 02:17:46;;;;;;;4.90;1.40;;;;;;;;;;103518;1292;549021;-78
2023/11/04 02:21:20;;;;;;;4.70;1.50;;;;;;;;;;103623;1290;545552;-83
2023/11/04 02:25:04;;;;;;;4.70;1.30;;;;;;;;;;103713;1291;547918;-83
2023/11/04 02:29:03;;;;;;;3.70;1.50;;;;;;;;;;103715;1292;545536;-80
2023/11/04 02:32:08;;;;;;;4.60;1.60;;;;;;;;;;103674;1295;549559;-78
2023/11/04 02:36:36;;;;;;;;;;;;;;;;;;;;;
2023/11/04 02:39:42;;;;;;;2.60;1.20;;;;;;;;;;103917;1295;545259;-80
2023/11/04 02:43:10;;;;;;;3.60;1.10;;;;;;;;;;103662;1292;547784;-78
2023/11/04 02:46:39;;;;;;;3.30;1.20;;;;;;;;;;103917;1288;544623;-77
2023/11/04 02:50:31;;;;;;;3.60;1.10;;;;;;;;;;103608;1303;549295;-78
2023/11/04 02:53:50;;;;;;;3.80;1.30;;;;;;;;;;103936;1289;544917;-77
2023/11/04 02:57:50;;;;;;;3.30;1.00;;;;;;;;;;103732;1293;547859;-79
2023/11/04 03:01:36;;;;;;;3.40;1.10;;;;;;;;;;103512;1294;545599;-90
2023/11/04 03:04:47;;;;;;;3.50;1.30;;;;;;;;;;103801;1289;547903;-76
2023/11/04 03:08:34;;;;;;;3.40;1.10;;;;;;;;;;103809;1295;545541;-81
2023/11/04 03:12:11;;;;;;;3.80;1.20;;;;;;;;;;103678;1290;549587;-78
2023/11/04 03:15:44;;;;;;;3.00;1.00;;;;;;;;;;103520;1292;545529;-81
2023/11/04 03:19:24;;;;;;;3.70;1.10;;;;;;;;;;103646;1293;548271;-79
2023/11/04 03:23:14;;;;;;;3.40;1.10;;;;;;;;;;103534;1297;545428;-78
2023/11/04 03:26:40;;;;;;;3.60;1.00;;;;;;;;;;103617;1292;549082;-82
2023/11/04 03:30:41;;;;;;;5.40;1.40;;;;;;;;;;103711;1295;548272;-79
2023/11/04 03:33:56;;;;;;;3.90;1.30;;;;;;;;;;103700;1292;547766;-87
2023/11/04 03:41:00;;;;;;;5.10;1.60;;;;;;;;;;103773;1290;545417;-78
2023/11/04 03:45:06;;;;;;;4.90;1.60;;;;;;;;;;103573;1294;549318;-76
2023/11/04 03:48:23;;;;;;;4.40;1.40;;;;;;;;;;103747;1295;545218;-78
2023/11/04 03:51:54;;;;;;;4.70;1.50;;;;;;;;;;103819;1294;544939;-78
2023/11/04 03:55:42;;;;;;;4.10;1.50;;;;;;;;;;103715;1297;545072;-79
2023/11/04 03:59:36;;;;;;;4.70;1.70;;;;;;;;;;103670;1291;548035;-82
2023/11/04 04:02:57;;;;;;;4.20;1.50;;;;;;;;;;103736;1289;548003;-78
2023/11/04 04:06:33;;;;;;;3.50;1.30;;;;;;;;;;103712;1292;547910;-79
2023/11/04 04:10:38;;;;;;;;;;;;;;;;;;;;;
2023/11/04 04:13:43;;;;;;;7.30;3.80;;;;;;;;;;103651;1291;547865;-78
2023/11/04 04:17:24;;;;;;;6.30;2.90;;;;;;;;;;103696;1291;545514;-77
2023/11/04 04:21:01;;;;;;;8.30;3.00;;;;;;;;;;103804;1289;545001;-79
2023/11/04 04:24:42;;;;;;;6.60;2.40;;;;;;;;;;103749;1293;549225;-82
2023/11/04 04:28:10;;;;;;;5.80;2.30;;;;;;;;;;104152;1286;544854;-77
2023/11/04 04:31:54;;;;;;;7.40;3.80;;;;;;;;;;103640;1294;548168;-80
2023/11/04 04:36:07;;;;;;;;;;;;;;;;;;;;;
2023/11/04 04:39:41;;;;;;;5.80;2.50;;;;;;;;;;103710;1302;546213;-78
2023/11/04 04:43:18;;;;;;;6.10;2.80;;;;;;;;;;103673;1291;547771;-84
2023/11/04 04:46:57;;;;;;;7.50;2.90;;;;;;;;;;103701;1290;547784;-78
2023/11/04 04:51:16;;;;;;;;;;;;;;;;;;;;;
2023/11/04 04:54:38;;;;;;;;;;;;;;;;;;;;;
2023/11/04 04:58:12;;;;;;;8.60;3.60;;;;;;;;;;103624;1295;549120;-81
2023/11/04 05:01:59;;;;;;;;;;;;;;;;;;;;;
2023/11/04 05:05:24;;;;;;;6.90;3.60;;;;;;;;;;103876;1288;545448;-84
2023/11/04 05:09:07;;;;;;;8.50;4.00;;;;;;;;;;104165;1289;549352;-78
2023/11/04 05:12:36;;;;;;;9.70;4.20;;;;;;;;;;103652;1295;547957;-81
2023/11/04 05:16:29;;;;;;;13.60;5.50;;;;;;;;;;103672;1292;545261;-78
2023/11/04 05:19:47;;;;;;;13.90;6.50;;;;;;;;;;103817;1289;545778;-78
2023/11/04 05:23:21;;;;;;;11.90;6.50;;;;;;;;;;103949;1289;545037;-78
2023/11/04 05:27:09;;;;;;;12.00;6.50;;;;;;;;;;103827;1292;545235;-80
2023/11/04 05:30:44;;;;;;;11.90;6.60;;;;;;;;;;103768;1289;548046;-80
2023/11/04 05:34:40;;;;;;;14.60;7.30;;;;;;;;;;103993;1291;545191;-79
2023/11/04 05:38:19;;;;;;;14.00;7.10;;;;;;;;;;103635;1291;547885;-82
2023/11/04 05:41:44;;;;;;;11.90;5.20;;;;;;;;;;103550;1294;548050;-81
2023/11/04 05:45:15;;;;;;;11.00;4.70;;;;;;;;;;103873;1296;548990;-78
2023/11/04 05:48:43;;;;;;;9.60;4.90;;;;;;;;;;103550;1295;545822;-76
2023/11/04 05:52:33;;;;;;;10.70;5.00;;;;;;;;;;104303;1291;548850;-77
2023/11/04 05:56:29;;;;;;;;;;;;;;;;;;;;;
2023/11/04 06:00:09;;;;;;;;;;;;;;;;;;;;;
2023/11/04 06:03:20;;;;;;;9.20;4.30;;;;;;;;;;103787;1290;548043;-77
2023/11/04 06:07:00;;;;;;;10.30;4.60;;;;;;;;;;103552;1297;546676;-79
2023/11/04 06:11:19;;;;;;;10.10;3.90;;;;;;;;;;103482;1296;545365;-81
2023/11/04 06:14:17;;;;;;;8.40;3.70;;;;;;;;;;103574;1291;547864;-79
2023/11/04 06:18:14;;;;;;;9.90;3.80;;;;;;;;;;103940;1296;545254;-78
2023/11/04 06:21:28;;;;;;;9.90;4.40;;;;;;;;;;103738;1291;548759;-81
2023/11/04 06:25:26;;;;;;;8.80;5.20;;;;;;;;;;104040;1285;548112;-77
2023/11/04 06:28:46;;;;;;;13.50;5.10;;;;;;;;;;103708;1292;548089;-80
2023/11/04 06:32:21;;;;;;;10.10;4.40;;;;;;;;;;103554;1294;549229;-82
2023/11/04 06:36:01;;;;;;;10.40;5.20;;;;;;;;;;103748;1297;545665;-81
2023/11/04 06:39:37;;;;;;;11.20;5.60;;;;;;;;;;103701;1292;547966;-77
2023/11/04 06:43:17;;;;;;;9.90;4.90;;;;;;;;;;103665;1294;549248;-79
2023/11/04 06:50:28;;;;;;;10.10;4.40;;;;;;;;;;104581;1286;547960;-80
2023/11/04 06:54:06;;;;;;;10.00;5.10;;;;;;;;;;104013;1286;548148;-78
2023/11/04 06:58:07;;;;;;;8.90;4.70;;;;;;;;;;103205;1300;545700;-82
2023/11/04 07:01:21;;;;;;;10.30;4.00;;;;;;;;;;103625;1291;548004;-76
2023/11/04 07:04:58;;;;;;;8.40;3.90;;;;;;;;;;103674;1290;545552;-75
2023/11/04 07:09:02;;;;;;;10.70;4.80;;;;;;;;;;103624;1297;548440;-82
2023/11/04 07:12:09;;;;;;;10.10;4.70;;;;;;;;;;103774;1289;545208;-78
2023/11/04 07:15:45;;;;;;;9.90;4.40;;;;;;;;;;103733;1290;545645;-74
2023/11/04 07:19:26;;;;;;;10.60;4.60;;;;;;;;;;103693;1292;545036;-76
2023/11/04 07:23:00;;;;;;;14.00;4.70;;;;;;;;;;103822;1289;544734;-77
2023/11/04 07:26:41;;;;;;;16.00;5.10;;;;;;;;;;103695;1295;545552;-76
2023/11/04 07:30:20;;;;;;;16.80;4.40;;;;;;;;;;103687;1291;545397;-76
2023/11/04 07:33:52;;;;;;;8.70;3.70;;;;;;;;;;103838;1291;545627;-78
2023/11/04 07:37:30;;;;;;;7.90;3.30;;;;;;;;;;103787;1292;545050;-75
2023/11/04 07:41:07;;;;;;;10.10;4.20;;;;;;;;;;103665;1294;545934;-76
2023/11/04 07:44:44;;;;;;;8.40;3.50;;;;;;;;;;103985;1288;545332;-78
2023/11/04 07:48:18;;;;;;;9.00;3.30;;;;;;;;;;103944;1290;545509;-77
2023/11/04 07:52:00;;;;;;;9.20;3.90;;;;;;;;;;103861;1288;545179;-75
2023/11/04 07:55:37;;;;;;;8.80;3.60;;;;;;;;;;103736;1292;545247;-76
2023/11/04 07:59:16;;;;;;;8.60;3.40;;;;;;;;;;103865;1289;544844;-80
2023/11/04 08:02:55;;;;;;;9.80;2.90;;;;;;;;;;103707;1291;545459;-79
2023/11/04 08:06:30;;;;;;;10.50;3.50;;;;;;;;;;103857;1295;544983;-75
2023/11/04 08:10:08;;;;;;;8.50;3.20;;;;;;;;;;103807;1292;545654;-75
2023/11/04 08:13:45;;;;;;;8.00;3.30;;;;;;;;;;103878;1289;545675;-76
2023/11/04 08:17:22;;;;;;;9.40;3.50;;;;;;;;;;103816;1292;545174;-75
2023/11/04 08:21:00;;;;;;;10.60;3.00;;;;;;;;;;103813;1293;544998;-80
2023/11/04 08:24:36;;;;;;;10.30;3.50;;;;;;;;;;103776;1290;545662;-75
2023/11/04 08:28:14;;;;;;;8.20;3.00;;;;;;;;;;103843;1288;545066;-82
2023/11/04 08:31:52;;;;;;;14.00;3.10;;;;;;;;;;103746;1291;545034;-75
2023/11/04 08:35:29;;;;;;;10.70;2.80;;;;;;;;;;103630;1295;545492;-80
2023/11/04 08:39:09;;;;;;;8.60;2.80;;;;;;;;;;103877;1289;544793;-75
2023/11/04 08:42:44;;;;;;;8.90;2.70;;;;;;;;;;104150;1285;544863;-75
2023/11/04 08:46:25;;;;;;;14.20;3.00;;;;;;;;;;103789;1291;547744;-79
2023/11/04 08:49:55;;;;;;;10.60;2.70;;;;;;;;;;104495;1286;544706;-73
2023/11/04 08:53:36;;;;;;;8.50;2.60;;;;;;;;;;103747;1290;545589;-74
2023/11/04 08:57:10;;;;;;;7.30;2.60;;;;;;;;;;103943;1289;544919;-76
2023/11/04 09:00:53;;;;;;;7.30;2.40;;;;;;;;;;103704;1292;545521;-74
2023/11/04 09:04:29;;;;;;;9.20;2.70;;;;;;;;;;104126;1289;545866;-74
2023/11/04 09:08:06;;;;;;;8.10;2.40;;;;;;;;;;103943;1292;545790;-74
2023/11/04 09:11:53;;;;;;;7.00;2.10;;;;;;;;;;103851;1292;547285;-76
2023/11/04 09:15:21;;;;;;;9.40;3.10;;;;;;;;;;103822;1292;544776;-74
2023/11/04 09:18:59;;;;;;;10.80;2.40;;;;;;;;;;103815;1289;544798;-78
2023/11/04 09:22:39;;;;;;;8.70;3.10;;;;;;;;;;103661;1291;545361;-73
2023/11/04 09:26:14;;;;;;;11.10;4.00;;;;;;;;;;103734;1294;545684;-76
2023/11/04 09:29:51;;;;;;;6.80;2.10;;;;;;;;;;104370;1286;545228;-74
2023/11/04 09:33:31;;;;;;;7.20;1.60;;;;;;;;;;103849;1288;546468;-75
2023/11/04 09:37:06;;;;;;;6.80;1.70;;;;;;;;;;103832;1295;544980;-74
2023/11/04 09:40:43;;;;;;;6.70;1.60;;;;;;;;;;103902;1289;544736;-73
2023/11/04 09:44:18;;;;;;;8.10;2.00;;;;;;;;;;104108;1289;545689;-75
2023/11/04 09:47:58;;;;;;;8.60;2.00;;;;;;;;;;104000;1301;545748;-77
2023/11/04 09:51:36;;;;;;;12.80;2.50;;;;;;;;;;103732;1294;544999;-73
2023/11/04 09:55:16;;;;;;;7.10;2.00;;;;;;;;;;103766;1291;545195;-77
2023/11/04 09:58:53;;;;;;;7.50;2.10;;;;;;;;;;104134;1288;545343;-74
2023/11/04 10:02:28;;;;;;;11.50;2.50;;;;;;;;;;103834;1292;544955;-74
2023/11/04 10:06:07;;;;;;;5.60;2.10;;;;;;;;;;103749;1291;545473;-74
2023/11/04 10:09:43;;;;;;;6.10;2.30;;;;;;;;;;103983;1291;545477;-76
2023/11/04 10:13:21;;;;;;;10.60;2.20;;;;;;;;;;104067;1288;545959;-74
2023/11/04 10:16:58;;;;;;;7.60;1.90;;;;;;;;;;103755;1305;545012;-75
2023/11/04 10:20:35;;;;;;;4.90;2.10;;;;;;;;;;103901;1289;545828;-74
2023/11/04 10:24:13;;;;;;;12.40;5.00;;;;;;;;;;103521;1297;545368;-74
2023/11/04 10:27:51;;;;;;;10.50;3.50;;;;;;;;;;103751;1294;544962;-75
2023/11/04 10:31:29;;;;;;;6.10;1.80;;;;;;;;;;104628;1282;544849;-74
2023/11/04 10:35:10;;;;;;;8.80;2.50;;;;;;;;;;103771;1291;544920;-75
2023/11/04 10:38:43;;;;;;;6.60;2.30;;;;;;;;;;104022;1289;547738;-73
2023/11/04 10:42:19;;;;;;;6.00;2.30;;;;;;;;;;103858;1289;546383;-76
2023/11/04 10:46:07;;;;;;;6.60;2.20;;;;;;;;;;103532;1295;544784;-74
2023/11/04 10:49:43;;;;;;;9.10;2.30;;;;;;;;;;103619;1295;545164;-76
2023/11/04 10:53:33;;;;;;;6.10;2.40;;;;;;;;;;103743;1289;545665;-76
2023/11/04 10:56:59;;;;;;;6.30;2.00;;;;;;;;;;103867;1289;546065;-77
2023/11/04 11:00:29;;;;;;;6.40;2.30;;;;;;;;;;103783;1291;544750;-75
2023/11/04 11:04:06;;;;;;;11.10;2.40;;;;;;;;;;103802;1289;545647;-76
2023/11/04 11:07:43;;;;;;;7.60;1.80;;;;;;;;;;103903;1289;544840;-77
2023/11/04 11:11:37;;;;;;;6.80;2.00;;;;;;;;;;103809;1292;545197;-76
2023/11/04 11:14:57;;;;;;;6.20;2.30;;;;;;;;;;103644;1294;544806;-73
2023/11/04 11:18:35;;;;;;;8.50;2.90;;;;;;;;;;103924;1292;545053;-76
2023/11/04 11:22:23;;;;;;;7.20;2.60;;;;;;;;;;103778;1292;547997;-76
2023/11/04 11:26:01;;;;;;;8.30;3.00;;;;;;;;;;103799;1288;545062;-79
2023/11/04 11:29:28;;;;;;;7.40;2.60;;;;;;;;;;103753;1291;545747;-77
2023/11/04 11:33:08;;;;;;;6.90;2.50;;;;;;;;;;103784;1295;545164;-75
2023/11/04 11:36:44;;;;;;;8.50;2.40;;;;;;;;;;103797;1289;545412;-75
2023/11/04 11:40:21;;;;;;;5.00;1.80;;;;;;;;;;103842;1291;544982;-79
2023/11/04 11:44:01;;;;;;;10.50;2.40;;;;;;;;;;103647;1292;547821;-78
2023/11/04 11:47:35;;;;;;;7.60;2.50;;;;;;;;;;103755;1291;545121;-74
2023/11/04 11:51:13;;;;;;;7.90;2.40;;;;;;;;;;103852;1292;545735;-76
2023/11/04 11:54:45;;;;;;;5.80;2.00;;;;;;;;;;104168;1290;544899;-81
2023/11/04 11:58:28;;;;;;;6.10;1.90;;;;;;;;;;103919;1289;545288;-78
2023/11/04 12:02:07;;;;;;;8.00;1.80;;;;;;;;;;103790;1293;544820;-78
2023/11/04 12:05:44;;;;;;;6.20;1.60;;;;;;;;;;103827;1291;544965;-77
2023/11/04 12:09:20;;;;;;;6.10;1.80;;;;;;;;;;103818;1289;544976;-75
2023/11/04 12:12:59;;;;;;;6.50;1.70;;;;;;;;;;103828;1289;545359;-77
2023/11/04 12:16:34;;;;;;;6.70;2.40;;;;;;;;;;103834;1291;545748;-77
2023/11/04 12:20:15;;;;;;;8.70;2.80;;;;;;;;;;103869;1291;545209;-76
2023/11/04 12:23:49;;;;;;;9.20;3.60;;;;;;;;;;103812;1291;546900;-73
2023/11/04 12:27:27;;;;;;;7.40;2.80;;;;;;;;;;103582;1292;544749;-78
2023/11/04 12:31:04;;;;;;;9.90;3.50;;;;;;;;;;103596;1295;545283;-76
2023/11/04 12:34:47;;;;;;;12.90;5.30;;;;;;;;;;103935;1289;544776;-75
2023/11/04 12:38:16;;;;;;;10.40;4.20;;;;;;;;;;103815;1291;544636;-74
2023/11/04 12:41:56;;;;;;;10.80;4.20;;;;;;;;;;103631;1306;544803;-74
2023/11/04 12:45:34;;;;;;;11.00;4.60;;;;;;;;;;103809;1295;544957;-77
2023/11/04 12:49:12;;;;;;;8.90;3.30;;;;;;;;;;103513;1294;545117;-74
2023/11/04 12:52:52;;;;;;;7.90;2.90;;;;;;;;;;103838;1292;544796;-75
2023/11/04 12:56:26;;;;;;;8.60;3.30;;;;;;;;;;103785;1289;546252;-74
2023/11/04 13:00:05;;;;;;;6.90;2.30;;;;;;;;;;103489;1293;544958;-75
2023/11/04 13:03:38;;;;;;;5.00;1.90;;;;;;;;;;103880;1292;544749;-77
2023/11/04 13:07:31;;;;;;;6.40;2.20;;;;;;;;;;103459;1298;545240;-81
2023/11/04 13:11:04;;;;;;;5.30;2.00;;;;;;;;;;103563;1298;548358;-77
2023/11/04 13:14:34;;;;;;;6.70;2.10;;;;;;;;;;103814;1292;544735;-79
2023/11/04 13:18:12;;;;;;;7.20;2.80;;;;;;;;;;103902;1289;544760;-78
2023/11/04 13:22:00;;;;;;;9.90;3.90;;;;;;;;;;103469;1298;545479;-81
2023/11/04 13:25:26;;;;;;;8.30;3.10;;;;;;;;;;103783;1290;545693;-78
2023/11/04 13:29:12;;;;;;;8.10;2.90;;;;;;;;;;103690;1291;548358;-80
2023/11/04 13:32:41;;;;;;;8.40;3.40;;;;;;;;;;103721;1291;544996;-75
2023/11/04 13:36:23;;;;;;;8.20;2.70;;;;;;;;;;103631;1292;545306;-74
2023/11/04 13:40:04;;;;;;;18.10;12.40;;;;;;;;;;103915;1288;548086;-83
2023/11/04 13:43:33;;;;;;;13.60;5.80;;;;;;;;;;103795;1292;544956;-78
2023/11/04 13:47:14;;;;;;;14.30;6.70;;;;;;;;;;103895;1292;544752;-84
2023/11/04 13:50:51;;;;;;;13.20;6.80;;;;;;;;;;104582;1282;545821;-77
2023/11/04 13:54:21;;;;;;;8.20;2.50;;;;;;;;;;103891;1292;545725;-79
2023/11/04 13:58:03;;;;;;;6.40;1.90;;;;;;;;;;104629;1282;544816;-79
2023/11/04 14:02:09;;;;;;;5.80;1.80;;;;;;;;;;103450;1295;548291;-81
2023/11/04 14:05:48;;;;;;;5.60;1.90;;;;;;;;;;103513;1295;548084;-75
2023/11/04 14:08:55;;;;;;;6.50;2.10;;;;;;;;;;103892;1289;544812;-75
2023/11/04 14:12:41;;;;;;;5.20;1.80;;;;;;;;;;103408;1293;546008;-81
2023/11/04 14:16:18;;;;;;;6.00;2.00;;;;;;;;;;103727;1291;547793;-84
2023/11/04 14:19:48;;;;;;;5.30;1.80;;;;;;;;;;103782;1292;544848;-75
2023/11/04 14:23:33;;;;;;;5.20;1.60;;;;;;;;;;103631;1295;547957;-81
2023/11/04 14:27:04;;;;;;;4.90;1.60;;;;;;;;;;103866;1292;545615;-79
2023/11/04 14:30:45;;;;;;;7.40;3.00;;;;;;;;;;103579;1292;547904;-76
2023/11/04 14:34:18;;;;;;;6.30;2.30;;;;;;;;;;103687;1295;544921;-75
2023/11/04 14:37:59;;;;;;;6.30;2.20;;;;;;;;;;104489;1283;547937;-76
2023/11/04 14:41:33;;;;;;;6.50;2.30;;;;;;;;;;104671;1280;544747;-75
2023/11/04 14:45:11;;;;;;;6.80;2.50;;;;;;;;;;103680;1291;544773;-75
2023/11/04 14:48:48;;;;;;;6.10;2.30;;;;;;;;;;103822;1289;544987;-75
2023/11/04 14:52:25;;;;;;;6.80;2.30;;;;;;;;;;103799;1291;544995;-78
2023/11/04 14:56:03;;;;;;;7.50;3.00;;;;;;;;;;103751;1291;545076;-79
2023/11/04 14:59:40;;;;;;;11.00;4.30;;;;;;;;;;103700;1290;545526;-75
2023/11/04 15:03:21;;;;;;;12.90;4.10;;;;;;;;;;103750;1289;545023;-80
2023/11/04 15:06:55;;;;;;;8.50;3.40;;;;;;;;;;103795;1292;544978;-77
2023/11/04 15:10:32;;;;;;;9.80;3.50;;;;;;;;;;103830;1292;545252;-75
2023/11/04 15:14:12;;;;;;;8.40;3.10;;;;;;;;;;103700;1295;545498;-73
2023/11/04 15:17:49;;;;;;;7.50;2.80;;;;;;;;;;104336;1286;544968;-78
2023/11/04 15:21:25;;;;;;;9.20;3.40;;;;;;;;;;104752;1280;544789;-75
2023/11/04 15:25:05;;;;;;;10.80;4.30;;;;;;;;;;103573;1295;544991;-76
2023/11/04 15:28:40;;;;;;;10.90;4.20;;;;;;;;;;103891;1295;544986;-77
2023/11/04 15:32:17;;;;;;;11.10;5.00;;;;;;;;;;103767;1290;545587;-76
2023/11/04 15:35:59;;;;;;;23.10;11.80;;;;;;;;;;103880;1290;545488;-80
2023/11/04 15:39:33;;;;;;;15.80;8.80;;;;;;;;;;104017;1288;545876;-75
2023/11/04 15:43:10;;;;;;;11.00;5.70;;;;;;;;;;103698;1298;545721;-82
2023/11/04 15:46:47;;;;;;;10.00;4.60;;;;;;;;;;103554;1292;544994;-74
2023/11/04 15:50:25;;;;;;;8.40;3.20;;;;;;;;;;103809;1295;545402;-80
2023/11/04 15:54:04;;;;;;;9.30;3.40;;;;;;;;;;103584;1294;545620;-75
2023/11/04 15:57:40;;;;;;;7.40;3.30;;;;;;;;;;103865;1289;545069;-83
2023/11/04 16:01:17;;;;;;;7.80;3.50;;;;;;;;;;103653;1289;545335;-75
2023/11/04 16:04:55;;;;;;;11.40;5.70;;;;;;;;;;103805;1296;544933;-75
2023/11/04 16:08:28;;;;;;;11.30;5.70;;;;;;;;;;103525;1301;544740;-78
2023/11/04 16:12:06;;;;;;;11.70;5.10;;;;;;;;;;103690;1291;545871;-76
2023/11/04 16:15:47;;;;;;;9.70;4.70;;;;;;;;;;103749;1295;546136;-82
2023/11/04 16:19:24;;;;;;;9.60;4.70;;;;;;;;;;103813;1292;544890;-75
2023/11/04 16:23:09;;;;;;;11.50;5.60;;;;;;;;;;103381;1292;545419;-76
2023/11/04 16:26:49;;;;;;;11.40;5.20;;;;;;;;;;103411;1294;547896;-78
2023/11/04 16:30:16;;;;;;;11.40;5.20;;;;;;;;;;104030;1289;544910;-73
2023/11/04 16:34:03;;;;;;;10.00;5.40;;;;;;;;;;103823;1289;547808;-80
2023/11/04 16:37:31;;;;;;;12.20;7.00;;;;;;;;;;103728;1289;545086;-81
2023/11/04 16:41:17;;;;;;;11.70;6.40;;;;;;;;;;103691;1291;548179;-87
2023/11/04 16:44:47;;;;;;;11.20;5.80;;;;;;;;;;103750;1294;544829;-76
2023/11/04 16:48:24;;;;;;;11.30;6.50;;;;;;;;;;104526;1283;545407;-78
2023/11/04 16:52:01;;;;;;;13.20;6.90;;;;;;;;;;104125;1288;544967;-75
2023/11/04 16:55:39;;;;;;;11.70;7.30;;;;;;;;;;103582;1298;544920;-76
2023/11/04 16:59:24;;;;;;;12.20;6.20;;;;;;;;;;103604;1291;545225;-86
2023/11/04 17:02:55;;;;;;;10.60;5.40;;;;;;;;;;103793;1289;545065;-80
2023/11/04 17:06:32;;;;;;;10.10;4.90;;;;;;;;;;103680;1298;544967;-78
2023/11/04 17:10:09;;;;;;;8.90;4.00;;;;;;;;;;103859;1288;545860;-82
2023/11/04 17:13:44;;;;;;;9.60;4.80;;;;;;;;;;103841;1292;545048;-78
2023/11/04 17:17:23;;;;;;;9.00;4.00;;;;;;;;;;103817;1290;544989;-77
2023/11/04 17:21:04;;;;;;;9.50;4.20;;;;;;;;;;104185;1285;545503;-74
2023/11/04 17:24:39;;;;;;;10.70;4.90;;;;;;;;;;103850;1290;544970;-75
2023/11/04 17:28:14;;;;;;;11.70;4.90;;;;;;;;;;103843;1290;545299;-77
2023/11/04 17:31:54;;;;;;;9.70;4.90;;;;;;;;;;104503;1282;545067;-74
2023/11/04 17:35:31;;;;;;;10.10;4.80;;;;;;;;;;103940;1289;544929;-74
2023/11/04 17:39:06;;;;;;;10.00;4.80;;;;;;;;;;103920;1290;544769;-77
2023/11/04 17:42:48;;;;;;;9.40;4.50;;;;;;;;;;103839;1291;544807;-79
2023/11/04 17:46:23;;;;;;;10.60;5.90;;;;;;;;;;103625;1297;544802;-76
2023/11/04 17:50:02;;;;;;;12.70;6.90;;;;;;;;;;103886;1289;545232;-84
2023/11/04 17:53:41;;;;;;;13.90;7.60;;;;;;;;;;103710;1292;545394;-81
2023/11/04 17:57:16;;;;;;;13.20;7.20;;;;;;;;;;103796;1295;546270;-77
2023/11/04 18:00:55;;;;;;;15.40;8.70;;;;;;;;;;103885;1289;545437;-78
2023/11/04 18:04:31;;;;;;;16.20;8.90;;;;;;;;;;103984;1289;544867;-76
2023/11/04 18:08:08;;;;;;;14.30;7.80;;;;;;;;;;103986;1295;544800;-79
2023/11/04 18:11:45;;;;;;;16.20;7.40;;;;;;;;;;103502;1294;544878;-74
2023/11/04 18:15:23;;;;;;;13.70;6.90;;;;;;;;;;103791;1292;544819;-78
2023/11/04 18:19:00;;;;;;;14.80;7.30;;;;;;;;;;103731;1289;545413;-82
2023/11/04 18:22:38;;;;;;;12.40;5.70;;;;;;;;;;104028;1288;545343;-82
2023/11/04 18:26:15;;;;;;;12.00;5.20;;;;;;;;;;103886;1289;544885;-75
2023/11/04 18:29:52;;;;;;;10.20;5.00;;;;;;;;;;103803;1290;544880;-76
2023/11/04 18:33:30;;;;;;;11.00;4.60;;;;;;;;;;103882;1288;545372;-75
2023/11/04 18:37:08;;;;;;;12.40;5.30;;;;;;;;;;103579;1292;545257;-78
2023/11/04 18:40:47;;;;;;;10.40;4.90;;;;;;;;;;104379;1288;545300;-76
2023/11/04 18:44:26;;;;;;;9.70;4.20;;;;;;;;;;103763;1290;545147;-74
2023/11/04 18:48:23;;;;;;;9.10;5.00;;;;;;;;;;103654;1295;545228;-75
2023/11/04 18:51:39;;;;;;;18.20;9.60;;;;;;;;;;103711;1292;545236;-81
2023/11/04 18:55:17;;;;;;;11.70;6.10;;;;;;;;;;103853;1292;546272;-75
2023/11/04 18:58:53;;;;;;;8.40;4.70;;;;;;;;;;103744;1292;544953;-77
2023/11/04 19:02:30;;;;;;;9.30;4.40;;;;;;;;;;103963;1285;544894;-76
2023/11/04 19:06:07;;;;;;;7.00;2.80;;;;;;;;;;103385;1295;545666;-80
2023/11/04 19:09:45;;;;;;;7.60;2.30;;;;;;;;;;103754;1292;545047;-79
2023/11/04 19:13:39;;;;;;;7.20;2.20;;;;;;;;;;103733;1292;545395;-76
2023/11/04 19:17:00;;;;;;;6.10;2.10;;;;;;;;;;103820;1292;545033;-76
2023/11/04 19:20:37;;;;;;;5.50;2.00;;;;;;;;;;103883;1290;544917;-79
2023/11/04 19:24:14;;;;;;;6.20;1.90;;;;;;;;;;103605;1293;545932;-74
2023/11/04 19:27:52;;;;;;;6.50;2.30;;;;;;;;;;103837;1299;544906;-75
2023/11/04 19:31:30;;;;;;;7.20;2.50;;;;;;;;;;103709;1292;545089;-76
2023/11/04 19:35:07;;;;;;;6.50;2.30;;;;;;;;;;103657;1292;544997;-82
2023/11/04 19:38:44;;;;;;;7.60;2.70;;;;;;;;;;103855;1292;544985;-81
2023/11/04 19:42:23;;;;;;;7.00;2.50;;;;;;;;;;103775;1292;544921;-74
2023/11/04 19:46:00;;;;;;;8.70;2.50;;;;;;;;;;103756;1291;544814;-75
2023/11/04 19:49:41;;;;;;;5.20;2.10;;;;;;;;;;103355;1294;544842;-75
2023/11/04 19:53:15;;;;;;;7.30;2.10;;;;;;;;;;104456;1287;545208;-76
2023/11/04 19:56:53;;;;;;;7.00;2.30;;;;;;;;;;103824;1291;544972;-74
2023/11/04 20:00:33;;;;;;;7.30;2.30;;;;;;;;;;103772;1293;545248;-74
2023/11/04 20:04:07;;;;;;;6.30;2.00;;;;;;;;;;104324;1285;544924;-76
2023/11/04 20:07:46;;;;;;;5.10;1.80;;;;;;;;;;104263;1285;544886;-80
2023/11/04 20:11:22;;;;;;;7.70;2.50;;;;;;;;;;103859;1289;544961;-76
2023/11/04 20:14:59;;;;;;;7.90;2.50;;;;;;;;;;103777;1292;544906;-74
2023/11/04 20:18:40;;;;;;;8.70;3.50;;;;;;;;;;103806;1289;545869;-75
2023/11/04 20:22:18;;;;;;;7.40;2.40;;;;;;;;;;104491;1283;547896;-76
2023/11/04 20:25:52;;;;;;;4.90;1.60;;;;;;;;;;103855;1291;544723;-78
2023/11/04 20:29:32;;;;;;;5.00;1.70;;;;;;;;;;103591;1298;544862;-78
2023/11/04 20:33:06;;;;;;;6.10;1.90;;;;;;;;;;103811;1289;544842;-77
2023/11/04 20:36:44;;;;;;;10.50;2.30;;;;;;;;;;103744;1290;545135;-75
2023/11/04 20:40:22;;;;;;;6.50;2.40;;;;;;;;;;103723;1299;545439;-73
2023/11/04 20:44:26;;;;;;;10.10;3.30;;;;;;;;;;103459;1292;548036;-82
2023/11/04 20:47:36;;;;;;;10.40;4.20;;;;;;;;;;104142;1288;545028;-77
2023/11/04 20:51:18;;;;;;;11.00;3.80;;;;;;;;;;103754;1295;547996;-75
2023/11/04 20:54:53;;;;;;;10.00;4.00;;;;;;;;;;104457;1285;545297;-80
2023/11/04 20:58:29;;;;;;;6.90;2.40;;;;;;;;;;103970;1289;545055;-75
2023/11/04 21:02:08;;;;;;;6.90;2.10;;;;;;;;;;103702;1293;545117;-75
2023/11/04 21:05:44;;;;;;;7.80;2.80;;;;;;;;;;103757;1291;545021;-76
2023/11/04 21:09:29;;;;;;;7.40;2.40;;;;;;;;;;103670;1305;546112;-75
2023/11/04 21:12:58;;;;;;;6.10;2.00;;;;;;;;;;103776;1291;545051;-74
2023/11/04 21:16:36;;;;;;;6.50;2.20;;;;;;;;;;103771;1290;544977;-73
2023/11/04 21:20:12;;;;;;;7.80;2.50;;;;;;;;;;103850;1292;544767;-80
2023/11/04 21:23:51;;;;;;;7.80;2.80;;;;;;;;;;104359;1283;544981;-76